Skip Navigation LinksHome page > Weather > Current weather Skip Navigation Links

Current Weather

Ben-Gurion Intl Apt, Tel Aviv, Israel

For information only: do not use for flight planning or navigation.
Latest weather
Observation time Tuesday, September 17, 2019 9:50 AM IDT
Local time Tuesday, September 17, 2019 10:03 AM IDT
Flight conditions Visual Meteorological Conditions
Winds
Wind direction North-Northwest (340°)
Wind speed 8 mph
Visibility 6.2 mi.
Sky condition
Ceiling unlimited
Cloud layer few clouds 3,000 ft.
Temperature 84°F
Dewpoint 66°F
Altimeter 29.94 in.Hg
Derived measurements
Relative humidity 55%
Heat index 87°F
Density altitude 2042 ft.
Remarks
No significant changes expected in the next two hours.
METAR LLBG 170650Z 34007KT 9999 FEW030 29/19 Q1014 NOSIG

Settings

Location code

InnerDrive.Weather 4.0.6770.0 Release CLR 4.0.30319.42000
Copyright ©2018 Inner Drive Technology. All rights reserved. Portions Copyright ©1986-2018 David Braverman.

Find weather

Site navigation


Skip Navigation Links

Place info

Page info

PayPal - The safer, easier way to pay online!

Return home.

Copyright ©2019 Inner Drive Technology. Purveyors of fine, hand-crafted computer software. Page printed 2019-09-17T07:03:27 UTC.